Time;durP1;ratioP1;P1;durP2;ratioP2;P2;SDS_P1;SDS_P2;PMS_P1;PMS_P2;Temp;Humidity;BMP_temperature;BMP_pressure;BME280_temperature;BME280_humidity;BME280_pressure;Samples;Min_cycle;Max_cycle;Signal;HPM_P1;HPM_P2
2022/09/07 00:00:17;;;;;;;;;;;;;;;20.37;73.00;101171.09;5113342;28;19914;-57
2022/09/07 00:02:42;;;;;;;;;;;;;;;20.30;73.47;101178.97;5112890;27;20370;-56
2022/09/07 00:05:07;;;;;;;;;;;;;;;20.19;73.04;101171.91;5112546;28;20422;-56
2022/09/07 00:07:33;;;;;;;;;;;;;;;20.09;73.28;101164.88;5112724;28;19907;-57
2022/09/07 00:09:58;;;;;;;;;;;;;;;20.00;73.11;101147.75;5111260;28;19918;-57
2022/09/07 00:12:24;;;;;;;;;;;;;;;20.07;73.31;101143.44;5112698;28;19914;-57
2022/09/07 00:14:51;;;;;;;;;;;;;;;20.14;73.28;101141.81;5110844;28;19914;-57
2022/09/07 00:17:17;;;;;;;;;;;;;;;20.02;73.00;101132.22;5112800;28;19915;-56
2022/09/07 00:19:42;;;;;;;;;;;;;;;19.88;73.34;101135.44;5110928;28;19915;-57
2022/09/07 00:22:07;;;;;;;;;;;;;;;19.82;73.08;101139.56;5112598;28;19912;-57
2022/09/07 00:24:32;;;;;;;;;;;;;;;19.80;72.84;101141.59;5112288;28;19911;-57
2022/09/07 00:26:58;;;;;;;;;;;;;;;19.77;74.02;101141.03;5112574;28;20010;-56
2022/09/07 00:29:24;;;;;;;;;;;;;;;19.69;74.09;101142.63;5111967;28;19908;-57
2022/09/07 00:31:49;;;;;;;;;;;;;;;19.62;72.96;101137.94;5111171;28;19912;-56
2022/09/07 00:34:14;;;;;;;;;;;;;;;19.64;73.63;101134.09;5112585;28;19908;-56
2022/09/07 00:36:42;;;;;;;;;;;;;;;19.76;72.18;101140.16;5112297;28;20378;-56
2022/09/07 00:39:09;;;;;;;;;;;;;;;19.81;72.18;101132.47;5112279;28;19908;-56
2022/09/07 00:41:34;;;;;;;;;;;;;;;19.86;72.81;101123.94;5112499;28;20282;-56
2022/09/07 00:44:18;;;;;;;;;;;;;;;19.88;72.63;101119.22;5111517;28;19912;-57
2022/09/07 00:46:45;;;;;;;;;;;;;;;19.90;71.36;101109.97;5111823;28;19907;-56
2022/09/07 00:49:14;;;;;;;;;;;;;;;19.98;70.54;101095.72;5112013;28;19994;-56
2022/09/07 00:51:42;;;;;;;;;;;;;;;20.02;71.74;101083.63;5112120;28;20297;-57
2022/09/07 00:54:11;;;;;;;;;;;;;;;19.91;71.66;101087.41;5112019;28;19914;-57
2022/09/07 00:56:38;;;;;;;;;;;;;;;19.90;71.72;101080.28;5111981;28;19922;-56
2022/09/07 00:59:03;;;;;;;;;;;;;;;19.89;72.19;101080.44;5111658;28;19957;-56
2022/09/07 01:01:32;;;;;;;;;;;;;;;19.83;71.15;101075.66;5069777;28;1194836;-56
2022/09/07 01:03:59;;;;;;;;;;;;;;;19.76;71.78;101085.34;5111241;28;19935;-57
2022/09/07 01:06:27;;;;;;;;;;;;;;;19.73;71.78;101098.13;5111618;28;19907;-57
2022/09/07 01:08:54;;;;;;;;;;;;;;;19.75;70.88;101103.41;5112771;28;19907;-56
2022/09/07 01:11:20;;;;;;;;;;;;;;;19.66;71.74;101097.03;5112761;28;19907;-57
2022/09/07 01:13:46;;;;;;;;;;;;;;;19.65;71.90;101094.50;5112320;28;20289;-57
2022/09/07 01:16:28;;;;;;;;;;;;;;;19.68;69.97;101092.34;5111520;28;19912;-57
2022/09/07 01:19:12;;;;;;;;;;;;;;;19.72;70.20;101093.75;5112448;28;19907;-57
2022/09/07 01:21:40;;;;;;;;;;;;;;;19.81;69.64;101091.16;5112656;28;19915;-57
2022/09/07 01:24:05;;;;;;;;;;;;;;;19.85;70.33;101093.38;5111289;28;20421;-57
2022/09/07 01:26:33;;;;;;;;;;;;;;;19.83;69.95;101099.97;5112676;28;19943;-57
2022/09/07 01:29:19;;;;;;;;;;;;;;;19.80;69.96;101090.31;5112079;28;20330;-57
2022/09/07 01:31:50;;;;;;;;;;;;;;;19.81;69.98;101093.84;5103926;28;19908;-57
2022/09/07 01:34:23;;;;;;;;;;;;;;;19.81;70.33;101094.69;5111312;28;20020;-57
2022/09/07 01:37:15;;;;;;;;;;;;;;;19.81;69.81;101102.78;5112449;28;19911;-57
2022/09/07 01:39:59;;;;;;;;;;;;;;;19.85;69.25;101106.88;5110265;27;19911;-57
2022/09/07 01:42:29;;;;;;;;;;;;;;;19.93;67.88;101109.69;5112560;28;19908;-57
2022/09/07 01:45:01;;;;;;;;;;;;;;;19.92;68.50;101104.44;5111876;28;19921;-57
2022/09/07 01:47:37;;;;;;;;;;;;;;;19.93;68.17;101109.69;5112280;28;20352;-57
2022/09/07 01:50:21;;;;;;;;;;;;;;;19.94;69.93;101102.41;5112466;28;19915;-57
2022/09/07 01:52:49;;;;;;;;;;;;;;;19.88;68.53;101092.22;5111159;28;20358;-57
2022/09/07 01:55:24;;;;;;;;;;;;;;;19.93;66.54;101100.72;5112494;28;19990;-57
2022/09/07 01:58:09;;;;;;;;;;;;;;;19.86;68.09;101108.59;5115444;28;20387;-57
2022/09/07 02:00:37;;;;;;;;;;;;;;;19.87;68.04;101104.03;5114162;28;19908;-56
2022/09/07 02:03:02;;;;;;;;;;;;;;;19.88;66.32;101100.31;5115674;27;19915;-57
2022/09/07 02:05:34;;;;;;;;;;;;;;;19.85;68.05;101101.47;5115970;28;20381;-57
2022/09/07 02:08:04;;;;;;;;;;;;;;;19.82;67.87;101101.78;5115812;28;19907;-57
2022/09/07 02:10:32;;;;;;;;;;;;;;;19.83;67.33;101095.41;5115760;28;19908;-57
2022/09/07 02:13:02;;;;;;;;;;;;;;;19.88;67.60;101093.09;5115256;28;19914;-57
2022/09/07 02:15:41;;;;;;;;;;;;;;;19.89;65.15;101100.19;5115455;28;19908;-57
2022/09/07 02:18:08;;;;;;;;;;;;;;;19.89;65.43;101102.03;5115698;28;19908;-57
2022/09/07 02:20:37;;;;;;;;;;;;;;;19.89;65.57;101100.19;5114367;28;20405;-57
2022/09/07 02:23:10;;;;;;;;;;;;;;;19.87;64.48;101094.09;5114202;28;19908;-56
2022/09/07 02:25:40;;;;;;;;;;;;;;;19.91;64.38;101098.19;5115468;28;20014;-57
2022/09/07 02:28:11;;;;;;;;;;;;;;;19.94;65.12;101102.41;5115623;28;19911;-57
2022/09/07 02:30:36;;;;;;;;;;;;;;;19.95;64.33;101094.19;5115206;28;19908;-57
2022/09/07 02:33:02;;;;;;;;;;;;;;;19.94;64.74;101099.72;5115289;28;20453;-57
2022/09/07 02:35:27;;;;;;;;;;;;;;;19.91;64.92;101091.94;5115272;28;19908;-57
2022/09/07 02:37:55;;;;;;;;;;;;;;;19.82;64.70;101095.53;5115234;28;19914;-57
2022/09/07 02:40:20;;;;;;;;;;;;;;;19.76;64.96;101104.25;5115311;27;19912;-57
2022/09/07 02:42:46;;;;;;;;;;;;;;;19.74;65.13;101101.72;5115289;28;19976;-56
2022/09/07 02:45:12;;;;;;;;;;;;;;;19.71;64.19;101105.56;5114429;28;19907;-57
2022/09/07 02:47:44;;;;;;;;;;;;;;;19.66;64.39;101104.28;5113823;28;20712;-57
2022/09/07 02:50:21;;;;;;;;;;;;;;;19.66;64.55;101109.69;5113732;28;19908;-57
2022/09/07 02:52:49;;;;;;;;;;;;;;;19.69;64.48;101096.75;5115096;28;19908;-57
2022/09/07 02:55:23;;;;;;;;;;;;;;;19.67;64.23;101098.72;5114929;28;19918;-57
2022/09/07 02:57:57;;;;;;;;;;;;;;;19.66;64.48;101101.59;5114903;28;20362;-56
2022/09/07 03:00:25;;;;;;;;;;;;;;;19.63;64.36;101099.16;5114540;28;19908;-57
2022/09/07 03:02:56;;;;;;;;;;;;;;;19.49;66.38;101106.75;5114536;28;20006;-57
2022/09/07 03:05:43;;;;;;;;;;;;;;;19.31;66.79;101107.69;5114753;28;20362;-57
2022/09/07 03:08:19;;;;;;;;;;;;;;;19.19;66.24;101117.78;5146876;27;20385;-57
2022/09/07 03:10:44;;;;;;;;;;;;;;;19.22;65.28;101099.47;5113538;28;19915;-57
2022/09/07 03:13:23;;;;;;;;;;;;;;;19.26;65.35;101105.41;5113854;28;20289;-57
2022/09/07 03:15:51;;;;;;;;;;;;;;;19.33;65.10;101103.84;5130139;27;19912;-57
2022/09/07 03:18:16;;;;;;;;;;;;;;;19.41;65.33;101095.88;5114610;28;19908;-57
2022/09/07 03:20:42;;;;;;;;;;;;;;;19.46;66.56;101090.00;5114504;28;19954;-57
2022/09/07 03:23:07;;;;;;;;;;;;;;;19.44;65.92;101090.16;5114302;28;19907;-57
2022/09/07 03:25:32;;;;;;;;;;;;;;;19.46;65.06;101082.75;5114329;28;19907;-56
2022/09/07 03:27:57;;;;;;;;;;;;;;;19.51;64.78;101087.72;5113700;28;19939;-57
2022/09/07 03:30:22;;;;;;;;;;;;;;;19.55;64.36;101093.66;5114241;28;20385;-57
2022/09/07 03:32:48;;;;;;;;;;;;;;;19.57;65.02;101095.22;5114311;28;20259;-56
2022/09/07 03:35:13;;;;;;;;;;;;;;;19.57;65.20;101095.22;5114212;28;19951;-57
2022/09/07 03:37:38;;;;;;;;;;;;;;;19.56;64.68;101093.53;5114183;28;19994;-56
2022/09/07 03:40:08;;;;;;;;;;;;;;;19.57;65.16;101087.13;5114013;28;19952;-56
2022/09/07 03:42:33;;;;;;;;;;;;;;;19.57;64.80;101091.69;5112375;28;19953;-57
2022/09/07 03:44:58;;;;;;;;;;;;;;;19.54;64.87;101100.06;5113452;28;20359;-57
2022/09/07 03:47:24;;;;;;;;;;;;;;;19.48;66.06;101102.34;5112639;28;19951;-56
2022/09/07 03:49:50;;;;;;;;;;;;;;;19.44;66.09;101102.78;5113818;28;19908;-57
2022/09/07 03:52:16;;;;;;;;;;;;;;;19.39;65.67;101097.84;5114046;28;19911;-56
2022/09/07 03:54:41;;;;;;;;;;;;;;;19.35;66.96;101090.19;5113669;28;19915;-56
2022/09/07 03:57:07;;;;;;;;;;;;;;;19.34;67.02;101089.34;5113851;28;19916;-56
2022/09/07 03:59:32;;;;;;;;;;;;;;;19.32;66.83;101082.41;5111811;28;19912;-56
2022/09/07 04:01:57;;;;;;;;;;;;;;;19.26;67.29;101079.28;5113597;28;20006;-56
2022/09/07 04:04:22;;;;;;;;;;;;;;;19.23;67.12;101063.41;5111486;28;19908;-56
2022/09/07 04:06:48;;;;;;;;;;;;;;;19.23;65.87;101062.56;5113672;28;19908;-56
2022/09/07 04:09:14;;;;;;;;;;;;;;;19.21;67.15;101062.72;5113687;28;20292;-57
2022/09/07 04:11:40;;;;;;;;;;;;;;;19.21;65.93;101059.19;5113193;28;19908;-56
2022/09/07 04:14:05;;;;;;;;;;;;;;;19.24;67.19;101050.78;5146042;27;19903;-56
2022/09/07 04:16:31;;;;;;;;;;;;;;;19.23;65.94;101055.31;5113328;28;19915;-56
2022/09/07 04:18:57;;;;;;;;;;;;;;;19.21;66.22;101049.22;5111775;28;19931;-56
2022/09/07 04:21:25;;;;;;;;;;;;;;;19.19;66.38;101045.81;5113419;28;19994;-56
2022/09/07 04:23:51;;;;;;;;;;;;;;;19.19;66.23;101040.44;5113152;28;19922;-57
2022/09/07 04:26:16;;;;;;;;;;;;;;;19.19;66.90;101043.13;5111905;28;19912;-56
2022/09/07 04:28:41;;;;;;;;;;;;;;;19.17;66.00;101057.75;5111546;28;20353;-56
2022/09/07 04:31:06;;;;;;;;;;;;;;;19.11;66.85;101067.28;5113331;28;19916;-56
2022/09/07 04:33:32;;;;;;;;;;;;;;;19.06;67.07;101069.59;5113039;28;20429;-57
2022/09/07 04:36:01;;;;;;;;;;;;;;;18.99;67.16;101068.44;5113149;28;19912;-56
2022/09/07 04:38:26;;;;;;;;;;;;;;;18.92;67.92;101078.97;5112971;28;19908;-56
2022/09/07 04:41:21;;;;;;;;;;;;;;;18.88;66.39;101063.22;5112890;28;20022;-56
2022/09/07 04:43:51;;;;;;;;;;;;;;;18.83;68.04;101066.38;5098149;28;19907;-56
2022/09/07 04:46:18;;;;;;;;;;;;;;;18.83;67.46;101071.75;5113193;28;20389;-57
2022/09/07 04:48:46;;;;;;;;;;;;;;;18.86;67.62;101076.88;5113061;28;20273;-56
2022/09/07 04:51:11;;;;;;;;;;;;;;;18.87;67.49;101067.78;5113003;28;19914;-57
2022/09/07 04:53:37;;;;;;;;;;;;;;;18.87;68.45;101069.63;5111442;28;19990;-56
2022/09/07 04:56:04;;;;;;;;;;;;;;;18.83;68.28;101069.06;5112615;28;19916;-56
2022/09/07 04:58:29;;;;;;;;;;;;;;;18.81;68.28;101069.19;5111189;28;19912;-56
2022/09/07 05:00:59;;;;;;;;;;;;;;;18.79;68.09;101067.63;5112990;28;20025;-56
2022/09/07 05:03:24;;;;;;;;;;;;;;;18.77;68.25;101067.81;5111364;28;19916;-56
2022/09/07 05:05:50;;;;;;;;;;;;;;;18.75;68.54;101056.31;5112777;28;20339;-56
2022/09/07 05:08:15;;;;;;;;;;;;;;;18.71;70.07;101054.88;5112939;28;19908;-56
2022/09/07 05:10:49;;;;;;;;;;;;;;;18.69;68.42;101054.16;5112524;28;19907;-56
2022/09/07 05:13:14;;;;;;;;;;;;;;;18.71;69.29;101048.66;5111075;28;20450;-56
2022/09/07 05:15:39;;;;;;;;;;;;;;;18.70;68.11;101045.06;5112562;28;20026;-56
2022/09/07 05:18:07;;;;;;;;;;;;;;;18.71;69.88;101049.50;5111147;28;19908;-57
2022/09/07 05:20:33;;;;;;;;;;;;;;;18.66;68.73;101056.31;5111277;28;20327;-57
2022/09/07 05:22:58;;;;;;;;;;;;;;;18.64;68.68;101058.28;5112485;28;19907;-56
2022/09/07 05:25:25;;;;;;;;;;;;;;;18.55;69.32;101055.44;5112293;28;20010;-57
2022/09/07 05:27:51;;;;;;;;;;;;;;;18.52;69.52;101054.88;5112573;28;19911;-57
2022/09/07 05:30:16;;;;;;;;;;;;;;;18.51;70.09;101061.28;5145376;27;19908;-57
2022/09/07 05:32:43;;;;;;;;;;;;;;;18.50;68.39;101060.44;5114288;28;19957;-57
2022/09/07 05:35:08;;;;;;;;;;;;;;;18.51;69.40;101058.59;5116386;28;20289;-57
2022/09/07 05:37:34;;;;;;;;;;;;;;;18.50;68.63;101059.56;5116179;28;19918;-57
2022/09/07 05:39:59;;;;;;;;;;;;;;;18.52;68.78;101062.97;5116001;28;19915;-56
2022/09/07 05:42:25;;;;;;;;;;;;;;;18.53;67.54;101057.47;5116321;28;19998;-57
2022/09/07 05:44:51;;;;;;;;;;;;;;;18.49;67.86;101065.94;5114171;28;20370;-57
2022/09/07 05:47:16;;;;;;;;;;;;;;;18.50;68.62;101064.94;5116214;28;19915;-56
2022/09/07 05:49:44;;;;;;;;;;;;;;;18.52;69.58;101068.34;5115816;28;19911;-57
2022/09/07 05:52:09;;;;;;;;;;;;;;;18.55;69.50;101062.69;5116172;28;19911;-56
2022/09/07 05:54:34;;;;;;;;;;;;;;;18.54;69.27;101067.22;5115828;28;19914;-57
2022/09/07 05:57:01;;;;;;;;;;;;;;;18.52;69.23;101063.81;5115941;28;19916;-57
2022/09/07 05:59:27;;;;;;;;;;;;;;;18.56;68.97;101073.34;5114129;28;20427;-56
2022/09/07 06:01:52;;;;;;;;;;;;;;;18.51;70.35;101085.53;5114494;28;19915;-57
2022/09/07 06:04:17;;;;;;;;;;;;;;;18.51;71.60;101085.53;5115944;28;19915;-57
2022/09/07 06:06:42;;;;;;;;;;;;;;;18.43;69.93;101094.31;5114138;28;20248;-57
2022/09/07 06:09:10;;;;;;;;;;;;;;;18.46;69.47;101090.47;5115791;28;19919;-57
2022/09/07 06:11:35;;;;;;;;;;;;;;;18.45;70.58;101088.78;5115628;28;19912;-57
2022/09/07 06:14:00;;;;;;;;;;;;;;;18.48;69.00;101092.03;5115141;28;19937;-56
2022/09/07 06:16:25;;;;;;;;;;;;;;;18.53;69.78;101083.53;5115529;28;20394;-57
2022/09/07 06:18:51;;;;;;;;;;;;;;;18.56;71.54;101084.09;5114090;28;20353;-57
2022/09/07 06:21:17;;;;;;;;;;;;;;;18.59;69.89;101085.66;5114206;28;19908;-57
2022/09/07 06:23:43;;;;;;;;;;;;;;;18.55;70.79;101093.16;5115302;28;19908;-57
2022/09/07 06:26:08;;;;;;;;;;;;;;;18.57;72.60;101093.88;5114189;28;20331;-57
2022/09/07 06:28:38;;;;;;;;;;;;;;;18.61;72.76;101100.66;5113687;28;19915;-57
2022/09/07 06:31:08;;;;;;;;;;;;;;;18.69;71.47;101102.66;5114061;28;19914;-56
2022/09/07 06:33:33;;;;;;;;;;;;;;;18.65;71.92;101098.56;5115032;28;19908;-57
2022/09/07 06:36:00;;;;;;;;;;;;;;;18.68;72.18;101100.97;5113403;28;19918;-57
2022/09/07 06:38:32;;;;;;;;;;;;;;;18.74;70.26;101104.97;5113780;28;19954;-56
2022/09/07 06:41:01;;;;;;;;;;;;;;;18.68;72.32;101108.19;5113950;28;19907;-56
2022/09/07 06:43:27;;;;;;;;;;;;;;;18.68;72.24;101110.88;5113190;28;19945;-56
2022/09/07 06:45:53;;;;;;;;;;;;;;;18.74;73.29;101111.22;5114998;28;20002;-56
2022/09/07 06:48:18;;;;;;;;;;;;;;;18.80;72.57;101110.63;5113537;28;19930;-57
2022/09/07 06:50:44;;;;;;;;;;;;;;;18.87;72.30;101110.06;5114945;28;20362;-56
2022/09/07 06:53:09;;;;;;;;;;;;;;;18.90;73.20;101107.91;5114759;28;19915;-56
2022/09/07 06:55:44;;;;;;;;;;;;;;;19.00;70.73;101115.97;5114825;28;19939;-56
2022/09/07 06:58:09;;;;;;;;;;;;;;;18.88;72.61;101114.44;5114239;28;20391;-56
2022/09/07 07:00:34;;;;;;;;;;;;;;;18.83;72.60;101122.97;5115041;28;19985;-56
2022/09/07 07:03:00;;;;;;;;;;;;;;;18.83;72.13;101118.44;5114520;28;20397;-57
2022/09/07 07:05:27;;;;;;;;;;;;;;;18.87;73.96;101116.28;5114400;28;19908;-57
2022/09/07 07:07:52;;;;;;;;;;;;;;;18.82;74.29;101110.47;5114481;28;19908;-56
2022/09/07 07:10:18;;;;;;;;;;;;;;;18.77;74.17;101121.69;5114732;28;19908;-56
2022/09/07 07:12:43;;;;;;;;;;;;;;;18.80;75.26;101117.88;5114618;28;19912;-56
2022/09/07 07:15:08;;;;;;;;;;;;;;;18.89;75.36;101125.09;5112792;28;19918;-56
2022/09/07 07:17:34;;;;;;;;;;;;;;;19.06;74.57;101118.97;5113019;28;20053;-57
2022/09/07 07:20:00;;;;;;;;;;;;;;;19.24;75.03;101121.75;5114005;28;19916;-56
2022/09/07 07:22:25;;;;;;;;;;;;;;;19.39;75.02;101124.81;5114438;28;20012;-56
2022/09/07 07:24:50;;;;;;;;;;;;;;;19.44;73.43;101127.94;5113987;28;19923;-56
2022/09/07 07:27:16;;;;;;;;;;;;;;;19.60;74.03;101123.75;5114413;28;19914;-56
2022/09/07 07:29:42;;;;;;;;;;;;;;;19.71;74.23;101134.41;5113580;28;19908;-56
2022/09/07 07:32:07;;;;;;;;;;;;;;;19.77;75.31;101130.25;5114192;28;19914;-56
2022/09/07 07:34:32;;;;;;;;;;;;;;;19.76;75.53;101136.63;5113803;28;20285;-56
2022/09/07 07:36:57;;;;;;;;;;;;;;;19.81;73.66;101139.72;5112561;28;19911;-56
2022/09/07 07:39:22;;;;;;;;;;;;;;;19.64;75.65;101138.63;5113972;28;19908;-56
2022/09/07 07:41:48;;;;;;;;;;;;;;;19.60;75.69;101132.69;5112797;28;19908;-56
2022/09/07 07:44:13;;;;;;;;;;;;;;;19.62;75.49;101141.50;5113552;28;19990;-56
2022/09/07 07:46:39;;;;;;;;;;;;;;;19.67;74.70;101139.22;5113910;28;20408;-56
2022/09/07 07:49:04;;;;;;;;;;;;;;;19.86;75.71;101137.44;5113457;28;19912;-56
2022/09/07 07:51:29;;;;;;;;;;;;;;;20.06;76.35;101141.75;5113696;28;19911;-56
2022/09/07 07:53:55;;;;;;;;;;;;;;;20.17;75.16;101144.19;5112929;28;19908;-56
2022/09/07 07:56:20;;;;;;;;;;;;;;;20.19;74.08;101144.91;5113958;28;19920;-57
2022/09/07 07:58:46;;;;;;;;;;;;;;;20.24;73.63;101147.16;5113032;28;20010;-56
2022/09/07 08:01:13;;;;;;;;;;;;;;;20.28;73.66;101155.81;5113479;28;19914;-56
2022/09/07 08:03:39;;;;;;;;;;;;;;;20.27;74.32;101156.81;5113323;28;19950;-56
2022/09/07 08:06:06;;;;;;;;;;;;;;;20.23;73.62;101150.84;5113486;28;19915;-56
2022/09/07 08:08:33;;;;;;;;;;;;;;;20.24;73.85;101149.03;5112025;28;19907;-57
2022/09/07 08:11:00;;;;;;;;;;;;;;;20.35;72.62;101152.34;5113473;28;20392;-56
2022/09/07 08:13:28;;;;;;;;;;;;;;;20.45;72.38;101156.84;5112825;28;20002;-56
2022/09/07 08:15:56;;;;;;;;;;;;;;;20.45;73.91;101151.44;5113207;28;20378;-56
2022/09/07 08:18:22;;;;;;;;;;;;;;;20.63;74.52;101155.00;5113023;28;20337;-56
2022/09/07 08:20:47;;;;;;;;;;;;;;;20.80;72.75;101151.44;5113422;28;19908;-56
2022/09/07 08:23:13;;;;;;;;;;;;;;;20.82;71.47;101165.66;5111716;28;20362;-56
2022/09/07 08:25:49;;;;;;;;;;;;;;;20.79;72.51;101155.13;5113168;28;19945;-56
2022/09/07 08:28:17;;;;;;;;;;;;;;;20.90;72.51;101162.16;5112808;28;19916;-56
2022/09/07 08:30:42;;;;;;;;;;;;;;;21.01;71.51;101161.94;5111852;28;19956;-56
2022/09/07 08:33:07;;;;;;;;;;;;;;;21.03;71.27;101167.16;5112762;28;20018;-56
2022/09/07 08:35:33;;;;;;;;;;;;;;;21.16;70.23;101159.50;5113085;28;19908;-56
2022/09/07 08:37:58;;;;;;;;;;;;;;;21.32;71.98;101166.88;5112941;28;19915;-56
2022/09/07 08:40:23;;;;;;;;;;;;;;;21.52;70.62;101171.09;5113031;28;20016;-56
2022/09/07 08:42:50;;;;;;;;;;;;;;;21.67;69.59;101170.50;5111715;28;19977;-56
2022/09/07 08:45:25;;;;;;;;;;;;;;;21.83;69.67;101180.56;5112733;28;19915;-56
2022/09/07 08:47:52;;;;;;;;;;;;;;;21.94;69.35;101167.59;5112679;28;19915;-57
2022/09/07 08:50:17;;;;;;;;;;;;;;;22.07;68.54;101171.69;5112993;28;20354;-56
2022/09/07 08:52:43;;;;;;;;;;;;;;;22.20;69.24;101167.53;5111519;28;19956;-56
2022/09/07 08:55:17;;;;;;;;;;;;;;;22.36;68.40;101174.03;5111508;28;19965;-56
2022/09/07 08:57:46;;;;;;;;;;;;;;;22.51;67.98;101171.50;5112556;28;19958;-56
2022/09/07 09:00:13;;;;;;;;;;;;;;;22.63;67.50;101170.16;5112310;28;19915;-56
2022/09/07 09:02:38;;;;;;;;;;;;;;;22.77;66.68;101169.50;5111042;28;20010;-57
2022/09/07 09:05:04;;;;;;;;;;;;;;;22.96;66.16;101172.91;5112716;28;19955;-56
2022/09/07 09:07:34;;;;;;;;;;;;;;;23.10;66.02;101185.81;5114306;28;20434;-56
2022/09/07 09:10:00;;;;;;;;;;;;;;;23.24;64.30;101166.13;5116835;28;19908;-57
2022/09/07 09:12:37;;;;;;;;;;;;;;;23.41;64.31;101171.50;5116874;28;19952;-57
2022/09/07 09:15:14;;;;;;;;;;;;;;;23.55;62.63;101179.78;5116236;28;20000;-57
2022/09/07 09:17:51;;;;;;;;;;;;;;;23.65;62.47;101179.63;5115419;28;19918;-56
2022/09/07 09:20:31;;;;;;;;;;;;;;;23.78;61.31;101176.38;5115519;28;19907;-56
2022/09/07 09:23:01;;;;;;;;;;;;;;;23.93;60.54;101179.19;5116568;28;19907;-57
2022/09/07 09:25:32;;;;;;;;;;;;;;;24.12;61.22;101173.34;5116719;28;19942;-57
2022/09/07 09:27:57;;;;;;;;;;;;;;;24.32;60.91;101172.88;5116116;28;19908;-57
2022/09/07 09:30:23;;;;;;;;;;;;;;;24.54;59.56;101179.41;5116008;28;19931;-57
2022/09/07 09:32:51;;;;;;;;;;;;;;;24.70;60.27;101171.97;5116422;28;19907;-57
2022/09/07 09:35:27;;;;;;;;;;;;;;;24.98;57.31;101176.88;5116555;28;19907;-57
2022/09/07 09:37:52;;;;;;;;;;;;;;;25.04;57.48;101175.28;5116492;28;19912;-57
2022/09/07 09:40:25;;;;;;;;;;;;;;;25.15;56.93;101167.56;5116394;28;20408;-57
2022/09/07 09:43:05;;;;;;;;;;;;;;;25.21;58.33;101176.88;5114859;28;19937;-57
2022/09/07 09:45:33;;;;;;;;;;;;;;;25.38;55.84;101170.22;5116138;28;19912;-57
2022/09/07 09:47:59;;;;;;;;;;;;;;;25.38;56.42;101177.53;5114768;28;19907;-57
2022/09/07 09:50:29;;;;;;;;;;;;;;;25.18;55.85;101179.09;5116228;28;19969;-57
2022/09/07 09:52:55;;;;;;;;;;;;;;;25.15;54.82;101174.88;5115885;28;19909;-57
2022/09/07 09:55:23;;;;;;;;;;;;;;;25.30;55.89;101174.91;5149108;27;19923;-57
2022/09/07 09:57:50;;;;;;;;;;;;;;;25.31;54.20;101179.31;5149215;27;19923;-56
2022/09/07 10:00:17;;;;;;;;;;;;;;;25.18;55.16;101176.38;5114013;28;19950;-57
2022/09/07 10:02:57;;;;;;;;;;;;;;;25.04;53.21;101183.47;5114428;28;19954;-56
2022/09/07 10:05:22;;;;;;;;;;;;;;;24.90;54.12;101171.50;5114759;28;19907;-56
2022/09/07 10:07:51;;;;;;;;;;;;;;;25.03;54.99;101168.13;5116380;28;19953;-57
2022/09/07 10:10:16;;;;;;;;;;;;;;;25.08;54.96;101161.09;5115807;28;20413;-57
2022/09/07 10:12:43;;;;;;;;;;;;;;;25.37;54.66;101167.69;5114413;28;19950;-57
2022/09/07 10:15:23;;;;;;;;;;;;;;;25.66;53.42;101163.28;5113793;28;19911;-57
2022/09/07 10:17:49;;;;;;;;;;;;;;;25.83;50.44;101162.94;5113690;28;19918;-57
2022/09/07 10:20:14;;;;;;;;;;;;;;;25.86;50.17;101167.16;5114335;28;19911;-57
2022/09/07 10:22:42;;;;;;;;;;;;;;;25.96;50.20;101161.41;5114391;28;19980;-57
2022/09/07 10:25:46;;;;;;;;;;;;;;;26.19;49.84;101153.09;5115487;28;20369;-57
2022/09/07 10:28:21;;;;;;;;;;;;;;;26.25;50.23;101155.06;5055094;28;20334;-57
2022/09/07 10:31:05;;;;;;;;;;;;;;;26.27;49.64;101150.25;5055749;28;19908;-57
2022/09/07 10:33:48;;;;;;;;;;;;;;;26.38;49.99;101152.44;5100393;28;20026;-57
2022/09/07 10:36:23;;;;;;;;;;;;;;;26.56;48.84;101152.06;5115532;28;19957;-57
2022/09/07 10:39:10;;;;;;;;;;;;;;;26.68;48.62;101134.13;5115150;28;19914;-57
2022/09/07 10:41:52;;;;;;;;;;;;;;;27.01;48.57;101138.19;5113872;28;19911;-57
2022/09/07 10:44:29;;;;;;;;;;;;;;;27.26;50.02;101142.16;5113353;28;19907;-57
2022/09/07 10:46:59;;;;;;;;;;;;;;;27.45;46.55;101145.25;5113758;28;20381;-57
2022/09/07 10:49:30;;;;;;;;;;;;;;;27.54;45.18;101146.78;5114907;28;19937;-57
2022/09/07 10:52:07;;;;;;;;;;;;;;;27.51;46.19;101145.28;5114958;28;19911;-57
2022/09/07 10:54:51;;;;;;;;;;;;;;;27.41;47.47;101136.59;5114953;27;20384;-57
2022/09/07 10:57:22;;;;;;;;;;;;;;;27.38;47.56;101139.72;5114808;28;19920;-57
2022/09/07 10:59:57;;;;;;;;;;;;;;;27.36;46.49;101139.09;5113075;28;19937;-57
2022/09/07 11:02:43;;;;;;;;;;;;;;;27.20;44.45;101137.50;5113236;28;20388;-57
2022/09/07 11:05:27;;;;;;;;;;;;;;;26.80;45.16;101133.59;5093051;28;19911;-57
2022/09/07 11:08:09;;;;;;;;;;;;;;;26.69;45.86;101134.97;5114593;28;20358;-57
2022/09/07 11:10:40;;;;;;;;;;;;;;;26.87;46.82;101127.16;5114618;28;19914;-57
2022/09/07 11:13:08;;;;;;;;;;;;;;;27.20;47.40;101132.03;5113984;28;19939;-57
2022/09/07 11:15:45;;;;;;;;;;;;;;;27.74;44.76;101130.50;5113209;28;19907;-57
2022/09/07 11:18:14;;;;;;;;;;;;;;;27.86;44.73;101131.63;5114346;28;19915;-57
2022/09/07 11:20:42;;;;;;;;;;;;;;;27.73;44.60;101124.16;5130088;27;19908;-57
2022/09/07 11:23:17;;;;;;;;;;;;;;;27.67;44.87;101126.88;5114343;28;19915;-57
2022/09/07 11:25:45;;;;;;;;;;;;;;;27.81;44.72;101126.75;5112855;28;19971;-57
2022/09/07 11:28:16;;;;;;;;;;;;;;;28.26;44.72;101129.84;5113588;28;19961;-57
2022/09/07 11:30:44;;;;;;;;;;;;;;;28.08;42.79;101126.88;5113673;28;19907;-57
2022/09/07 11:33:14;;;;;;;;;;;;;;;27.62;44.28;101119.28;5113801;28;20251;-57
2022/09/07 11:35:49;;;;;;;;;;;;;;;28.04;43.79;101122.88;5114603;28;19912;-57
2022/09/07 11:38:33;;;;;;;;;;;;;;;28.86;41.85;101129.16;5112940;28;19990;-57
2022/09/07 11:40:58;;;;;;;;;;;;;;;29.42;41.06;101125.94;5113810;28;19915;-57
2022/09/07 11:43:40;;;;;;;;;;;;;;;29.71;40.13;101129.25;5114023;28;19907;-57
2022/09/07 11:46:11;;;;;;;;;;;;;;;29.92;37.93;101126.22;5113985;28;20335;-57
2022/09/07 11:48:42;;;;;;;;;;;;;;;30.45;39.13;101119.63;5112511;28;19908;-57
2022/09/07 11:51:20;;;;;;;;;;;;;;;31.21;36.95;101119.44;5112578;28;19953;-57
2022/09/07 11:53:48;;;;;;;;;;;;;;;32.14;37.82;101120.28;5113740;27;19907;-57
2022/09/07 11:56:29;;;;;;;;;;;;;;;32.40;38.32;101121.81;5113845;28;20349;-57
2022/09/07 11:58:57;;;;;;;;;;;;;;;31.55;35.63;101121.84;5113148;28;19916;-57
2022/09/07 12:01:29;;;;;;;;;;;;;;;31.88;36.20;101118.69;5112229;28;20369;-57
2022/09/07 12:04:11;;;;;;;;;;;;;;;32.31;33.96;101114.97;5113521;28;19993;-58
2022/09/07 12:06:52;;;;;;;;;;;;;;;32.85;36.04;101114.97;5113513;28;19914;-58
2022/09/07 12:09:20;;;;;;;;;;;;;;;32.54;33.02;101109.53;5113295;28;20356;-57
2022/09/07 12:11:51;;;;;;;;;;;;;;;32.60;32.93;101106.94;5112271;28;19914;-57
2022/09/07 12:14:24;;;;;;;;;;;;;;;32.71;33.98;101104.19;5111883;28;19908;-57
2022/09/07 12:17:15;;;;;;;;;;;;;;;33.11;31.62;101097.16;5113322;28;19916;-58
2022/09/07 12:19:41;;;;;;;;;;;;;;;33.69;28.65;101096.25;5111894;28;19943;-57
2022/09/07 12:22:17;;;;;;;;;;;;;;;33.93;29.73;101091.50;5111928;28;19912;-58
2022/09/07 12:24:52;;;;;;;;;;;;;;;34.52;29.08;101085.69;5112900;28;20006;-58
2022/09/07 12:27:21;;;;;;;;;;;;;;;34.67;28.64;101090.66;5113476;28;19994;-58
2022/09/07 12:29:46;;;;;;;;;;;;;;;34.41;28.94;101095.72;5111622;28;20010;-58
2022/09/07 12:32:32;;;;;;;;;;;;;;;34.30;27.59;101083.66;5113152;28;19951;-58
2022/09/07 12:34:57;;;;;;;;;;;;;;;34.89;28.31;101080.53;5113751;27;19930;-58
2022/09/07 12:37:25;;;;;;;;;;;;;;;35.39;28.58;101076.84;5111849;28;20366;-58
2022/09/07 12:40:11;;;;;;;;;;;;;;;35.15;27.29;101087.31;5112462;28;19954;-58
2022/09/07 12:42:36;;;;;;;;;;;;;;;35.68;29.73;101076.66;5080768;28;19907;-58
2022/09/07 12:45:20;;;;;;;;;;;;;;;36.74;24.53;101083.53;5111247;28;19911;-58